sensor_id;sensor_type;location;lat;lon;timestamp;temperature;humidity
16076;DHT22;8142;48.242;11.644;2023-07-13T00:02:16;20.70;99.90
16076;DHT22;8142;48.242;11.644;2023-07-13T00:04:42;20.70;99.90
16076;DHT22;8142;48.242;11.644;2023-07-13T00:07:08;20.70;99.90
16076;DHT22;8142;48.242;11.644;2023-07-13T00:09:34;20.70;99.90
16076;DHT22;8142;48.242;11.644;2023-07-13T00:12:01;20.70;99.90
16076;DHT22;8142;48.242;11.644;2023-07-13T00:14:29;20.70;99.90
16076;DHT22;8142;48.242;11.644;2023-07-13T00:16:55;20.70;99.90
16076;DHT22;8142;48.242;11.644;2023-07-13T00:19:22;20.70;99.90
16076;DHT22;8142;48.242;11.644;2023-07-13T00:21:48;20.60;99.90
16076;DHT22;8142;48.242;11.644;2023-07-13T00:24:16;20.60;99.90
16076;DHT22;8142;48.242;11.644;2023-07-13T00:26:47;20.60;99.90
16076;DHT22;8142;48.242;11.644;2023-07-13T00:29:13;20.60;99.90
16076;DHT22;8142;48.242;11.644;2023-07-13T00:31:39;20.60;99.90
16076;DHT22;8142;48.242;11.644;2023-07-13T00:34:05;20.60;99.90
16076;DHT22;8142;48.242;11.644;2023-07-13T00:36:31;20.60;99.90
16076;DHT22;8142;48.242;11.644;2023-07-13T00:38:57;20.60;99.90
16076;DHT22;8142;48.242;11.644;2023-07-13T00:41:24;20.50;99.90
16076;DHT22;8142;48.242;11.644;2023-07-13T00:43:50;20.60;99.90
16076;DHT22;8142;48.242;11.644;2023-07-13T00:46:22;20.60;99.90
16076;DHT22;8142;48.242;11.644;2023-07-13T00:48:49;20.60;99.90
16076;DHT22;8142;48.242;11.644;2023-07-13T00:51:23;20.50;99.90
16076;DHT22;8142;48.242;11.644;2023-07-13T00:53:53;20.50;99.90
16076;DHT22;8142;48.242;11.644;2023-07-13T00:56:20;20.50;99.90
16076;DHT22;8142;48.242;11.644;2023-07-13T00:58:46;20.50;99.90
16076;DHT22;8142;48.242;11.644;2023-07-13T01:01:12;20.50;99.90
16076;DHT22;8142;48.242;11.644;2023-07-13T01:03:38;20.50;99.90
16076;DHT22;8142;48.242;11.644;2023-07-13T01:06:06;20.40;99.90
16076;DHT22;8142;48.242;11.644;2023-07-13T01:08:32;20.40;99.90
16076;DHT22;8142;48.242;11.644;2023-07-13T01:10:58;20.40;99.90
16076;DHT22;8142;48.242;11.644;2023-07-13T01:13:24;20.30;99.90
16076;DHT22;8142;48.242;11.644;2023-07-13T01:15:51;20.50;99.90
16076;DHT22;8142;48.242;11.644;2023-07-13T01:18:23;20.40;99.90
16076;DHT22;8142;48.242;11.644;2023-07-13T01:20:56;20.40;99.90
16076;DHT22;8142;48.242;11.644;2023-07-13T01:23:23;20.40;99.90
16076;DHT22;8142;48.242;11.644;2023-07-13T01:25:49;20.40;99.90
16076;DHT22;8142;48.242;11.644;2023-07-13T01:28:15;20.30;99.90
16076;DHT22;8142;48.242;11.644;2023-07-13T01:30:43;20.40;99.90
16076;DHT22;8142;48.242;11.644;2023-07-13T01:33:12;20.40;99.90
16076;DHT22;8142;48.242;11.644;2023-07-13T01:35:38;20.40;99.90
16076;DHT22;8142;48.242;11.644;2023-07-13T01:38:05;20.40;99.90
16076;DHT22;8142;48.242;11.644;2023-07-13T01:40:31;20.40;99.90
16076;DHT22;8142;48.242;11.644;2023-07-13T01:42:58;20.30;99.90
16076;DHT22;8142;48.242;11.644;2023-07-13T01:45:24;20.30;99.90
16076;DHT22;8142;48.242;11.644;2023-07-13T01:47:50;20.30;99.90
16076;DHT22;8142;48.242;11.644;2023-07-13T01:50:16;20.30;99.90
16076;DHT22;8142;48.242;11.644;2023-07-13T01:52:42;20.30;99.90
16076;DHT22;8142;48.242;11.644;2023-07-13T01:55:08;20.30;99.90
16076;DHT22;8142;48.242;11.644;2023-07-13T01:57:34;20.30;99.90
16076;DHT22;8142;48.242;11.644;2023-07-13T02:00:04;20.30;99.90
16076;DHT22;8142;48.242;11.644;2023-07-13T02:02:30;20.20;99.90
16076;DHT22;8142;48.242;11.644;2023-07-13T02:04:56;20.10;99.90
16076;DHT22;8142;48.242;11.644;2023-07-13T02:07:22;20.10;99.90
16076;DHT22;8142;48.242;11.644;2023-07-13T02:09:48;20.10;99.90
16076;DHT22;8142;48.242;11.644;2023-07-13T02:12:14;20.10;99.90
16076;DHT22;8142;48.242;11.644;2023-07-13T02:14:40;20.00;99.90
16076;DHT22;8142;48.242;11.644;2023-07-13T02:17:06;20.00;99.90
16076;DHT22;8142;48.242;11.644;2023-07-13T02:19:32;19.80;99.90
16076;DHT22;8142;48.242;11.644;2023-07-13T02:21:58;19.80;99.90
16076;DHT22;8142;48.242;11.644;2023-07-13T02:24:24;19.80;99.90
16076;DHT22;8142;48.242;11.644;2023-07-13T02:26:50;19.70;99.90
16076;DHT22;8142;48.242;11.644;2023-07-13T02:29:15;19.60;99.90
16076;DHT22;8142;48.242;11.644;2023-07-13T02:31:41;19.60;99.90
16076;DHT22;8142;48.242;11.644;2023-07-13T02:34:07;19.60;99.90
16076;DHT22;8142;48.242;11.644;2023-07-13T02:36:33;19.50;99.90
16076;DHT22;8142;48.242;11.644;2023-07-13T02:39:01;19.50;99.90
16076;DHT22;8142;48.242;11.644;2023-07-13T02:41:28;19.50;99.90
16076;DHT22;8142;48.242;11.644;2023-07-13T02:43:54;19.40;99.90
16076;DHT22;8142;48.242;11.644;2023-07-13T02:46:32;19.40;99.90
16076;DHT22;8142;48.242;11.644;2023-07-13T02:48:58;19.40;99.90
16076;DHT22;8142;48.242;11.644;2023-07-13T02:51:24;19.40;99.90
16076;DHT22;8142;48.242;11.644;2023-07-13T02:53:50;19.40;99.90
16076;DHT22;8142;48.242;11.644;2023-07-13T02:56:16;19.40;99.90
16076;DHT22;8142;48.242;11.644;2023-07-13T02:58:42;19.40;99.90
16076;DHT22;8142;48.242;11.644;2023-07-13T03:01:09;19.40;99.90
16076;DHT22;8142;48.242;11.644;2023-07-13T03:03:36;19.30;99.90
16076;DHT22;8142;48.242;11.644;2023-07-13T03:06:04;19.30;99.90
16076;DHT22;8142;48.242;11.644;2023-07-13T03:08:31;19.10;99.90
16076;DHT22;8142;48.242;11.644;2023-07-13T03:11:06;19.00;99.90
16076;DHT22;8142;48.242;11.644;2023-07-13T03:13:33;19.00;99.90
16076;DHT22;8142;48.242;11.644;2023-07-13T03:15:59;18.90;99.90
16076;DHT22;8142;48.242;11.644;2023-07-13T03:18:27;18.90;99.90
16076;DHT22;8142;48.242;11.644;2023-07-13T03:20:53;18.80;99.90
16076;DHT22;8142;48.242;11.644;2023-07-13T03:23:19;18.80;99.90
16076;DHT22;8142;48.242;11.644;2023-07-13T03:25:46;18.70;99.90
16076;DHT22;8142;48.242;11.644;2023-07-13T03:28:13;18.80;99.90
16076;DHT22;8142;48.242;11.644;2023-07-13T03:30:39;18.80;99.90
16076;DHT22;8142;48.242;11.644;2023-07-13T03:33:05;18.80;99.90
16076;DHT22;8142;48.242;11.644;2023-07-13T03:35:31;18.80;99.90
16076;DHT22;8142;48.242;11.644;2023-07-13T03:37:59;18.90;99.90
16076;DHT22;8142;48.242;11.644;2023-07-13T03:40:26;18.90;99.90
16076;DHT22;8142;48.242;11.644;2023-07-13T03:42:52;18.90;99.90
16076;DHT22;8142;48.242;11.644;2023-07-13T03:45:18;19.00;99.90
16076;DHT22;8142;48.242;11.644;2023-07-13T03:47:44;19.00;99.90
16076;DHT22;8142;48.242;11.644;2023-07-13T03:50:10;19.00;99.90
16076;DHT22;8142;48.242;11.644;2023-07-13T03:52:37;19.10;99.90
16076;DHT22;8142;48.242;11.644;2023-07-13T03:55:03;19.10;99.90
16076;DHT22;8142;48.242;11.644;2023-07-13T03:57:29;19.10;99.90
16076;DHT22;8142;48.242;11.644;2023-07-13T03:59:55;19.10;99.90
16076;DHT22;8142;48.242;11.644;2023-07-13T04:02:21;19.20;99.90
16076;DHT22;8142;48.242;11.644;2023-07-13T04:04:47;19.10;99.90
16076;DHT22;8142;48.242;11.644;2023-07-13T04:07:13;19.20;99.90
16076;DHT22;8142;48.242;11.644;2023-07-13T04:09:38;19.20;99.90
16076;DHT22;8142;48.242;11.644;2023-07-13T04:12:05;19.20;99.90
16076;DHT22;8142;48.242;11.644;2023-07-13T04:14:31;19.20;99.90
16076;DHT22;8142;48.242;11.644;2023-07-13T04:16:56;19.20;99.90
16076;DHT22;8142;48.242;11.644;2023-07-13T04:19:23;19.20;99.90
16076;DHT22;8142;48.242;11.644;2023-07-13T04:21:49;19.20;99.90
16076;DHT22;8142;48.242;11.644;2023-07-13T04:24:14;19.20;99.90
16076;DHT22;8142;48.242;11.644;2023-07-13T04:26:40;19.20;99.90
16076;DHT22;8142;48.242;11.644;2023-07-13T04:29:07;19.20;99.90
16076;DHT22;8142;48.242;11.644;2023-07-13T04:31:33;19.20;99.90
16076;DHT22;8142;48.242;11.644;2023-07-13T04:33:59;19.20;99.90
16076;DHT22;8142;48.242;11.644;2023-07-13T04:36:25;19.10;99.90
16076;DHT22;8142;48.242;11.644;2023-07-13T04:38:54;19.20;99.90
16076;DHT22;8142;48.242;11.644;2023-07-13T04:41:21;19.20;99.90
16076;DHT22;8142;48.242;11.644;2023-07-13T04:43:47;19.20;99.90
16076;DHT22;8142;48.242;11.644;2023-07-13T04:46:15;19.30;99.90
16076;DHT22;8142;48.242;11.644;2023-07-13T04:48:43;19.30;99.90
16076;DHT22;8142;48.242;11.644;2023-07-13T04:51:09;19.30;99.90
16076;DHT22;8142;48.242;11.644;2023-07-13T04:53:35;19.30;99.90
16076;DHT22;8142;48.242;11.644;2023-07-13T04:56:02;19.30;99.90
16076;DHT22;8142;48.242;11.644;2023-07-13T04:58:28;19.30;99.90
16076;DHT22;8142;48.242;11.644;2023-07-13T05:01:00;19.30;99.90
16076;DHT22;8142;48.242;11.644;2023-07-13T05:03:29;19.30;99.90
16076;DHT22;8142;48.242;11.644;2023-07-13T05:06:01;19.30;99.90
16076;DHT22;8142;48.242;11.644;2023-07-13T05:08:30;19.30;99.90
16076;DHT22;8142;48.242;11.644;2023-07-13T05:10:56;19.30;99.90
16076;DHT22;8142;48.242;11.644;2023-07-13T05:13:22;19.30;99.90
16076;DHT22;8142;48.242;11.644;2023-07-13T05:16:03;19.40;99.90
16076;DHT22;8142;48.242;11.644;2023-07-13T05:18:30;19.40;99.90
16076;DHT22;8142;48.242;11.644;2023-07-13T05:21:04;19.60;99.90
16076;DHT22;8142;48.242;11.644;2023-07-13T05:23:31;19.50;99.90
16076;DHT22;8142;48.242;11.644;2023-07-13T05:25:57;19.50;99.90
16076;DHT22;8142;48.242;11.644;2023-07-13T05:28:24;19.50;99.90
16076;DHT22;8142;48.242;11.644;2023-07-13T05:30:50;19.50;99.90
16076;DHT22;8142;48.242;11.644;2023-07-13T05:33:16;19.50;99.90
16076;DHT22;8142;48.242;11.644;2023-07-13T05:35:42;19.50;99.90
16076;DHT22;8142;48.242;11.644;2023-07-13T05:38:08;19.50;99.90
16076;DHT22;8142;48.242;11.644;2023-07-13T05:40:34;19.50;99.90
16076;DHT22;8142;48.242;11.644;2023-07-13T05:43:00;19.50;99.90
16076;DHT22;8142;48.242;11.644;2023-07-13T05:45:26;19.50;99.90
16076;DHT22;8142;48.242;11.644;2023-07-13T05:47:52;19.60;99.90
16076;DHT22;8142;48.242;11.644;2023-07-13T05:50:18;19.60;99.90
16076;DHT22;8142;48.242;11.644;2023-07-13T05:52:44;19.60;99.90
16076;DHT22;8142;48.242;11.644;2023-07-13T05:55:10;19.50;99.90
16076;DHT22;8142;48.242;11.644;2023-07-13T05:57:35;19.50;99.90
16076;DHT22;8142;48.242;11.644;2023-07-13T06:00:01;19.40;99.90
16076;DHT22;8142;48.242;11.644;2023-07-13T06:02:28;19.30;99.90
16076;DHT22;8142;48.242;11.644;2023-07-13T06:04:54;19.30;99.90
16076;DHT22;8142;48.242;11.644;2023-07-13T06:07:19;19.40;99.90
16076;DHT22;8142;48.242;11.644;2023-07-13T06:09:45;19.50;99.90
16076;DHT22;8142;48.242;11.644;2023-07-13T06:12:11;19.60;99.90
16076;DHT22;8142;48.242;11.644;2023-07-13T06:14:37;19.70;99.90
16076;DHT22;8142;48.242;11.644;2023-07-13T06:17:03;19.90;99.90
16076;DHT22;8142;48.242;11.644;2023-07-13T06:19:29;20.00;99.90
16076;DHT22;8142;48.242;11.644;2023-07-13T06:21:55;20.20;99.90
16076;DHT22;8142;48.242;11.644;2023-07-13T06:24:21;20.50;99.90
16076;DHT22;8142;48.242;11.644;2023-07-13T06:26:47;20.80;99.90
16076;DHT22;8142;48.242;11.644;2023-07-13T06:29:13;21.20;99.90
16076;DHT22;8142;48.242;11.644;2023-07-13T06:31:38;21.50;99.90
16076;DHT22;8142;48.242;11.644;2023-07-13T06:34:04;21.90;99.90
16076;DHT22;8142;48.242;11.644;2023-07-13T06:36:30;22.30;99.90
16076;DHT22;8142;48.242;11.644;2023-07-13T06:38:56;22.60;99.90
16076;DHT22;8142;48.242;11.644;2023-07-13T06:41:22;22.90;99.90
16076;DHT22;8142;48.242;11.644;2023-07-13T06:43:50;23.20;99.90
16076;DHT22;8142;48.242;11.644;2023-07-13T06:46:15;23.30;99.90
16076;DHT22;8142;48.242;11.644;2023-07-13T06:48:42;23.50;99.90
16076;DHT22;8142;48.242;11.644;2023-07-13T06:51:08;23.60;99.90
16076;DHT22;8142;48.242;11.644;2023-07-13T06:53:34;23.60;99.90
16076;DHT22;8142;48.242;11.644;2023-07-13T06:56:00;23.50;99.90
16076;DHT22;8142;48.242;11.644;2023-07-13T06:58:26;23.40;99.90
16076;DHT22;8142;48.242;11.644;2023-07-13T07:00:52;23.30;99.90
16076;DHT22;8142;48.242;11.644;2023-07-13T07:03:18;23.20;99.90
16076;DHT22;8142;48.242;11.644;2023-07-13T07:05:44;23.10;99.90
16076;DHT22;8142;48.242;11.644;2023-07-13T07:08:10;23.00;99.90
16076;DHT22;8142;48.242;11.644;2023-07-13T07:10:36;22.90;99.90
16076;DHT22;8142;48.242;11.644;2023-07-13T07:13:02;22.90;99.90
16076;DHT22;8142;48.242;11.644;2023-07-13T07:15:29;22.80;99.90
16076;DHT22;8142;48.242;11.644;2023-07-13T07:17:55;22.70;99.90
16076;DHT22;8142;48.242;11.644;2023-07-13T07:20:21;22.70;99.90
16076;DHT22;8142;48.242;11.644;2023-07-13T07:22:47;22.70;99.90
16076;DHT22;8142;48.242;11.644;2023-07-13T07:25:14;22.70;99.90
16076;DHT22;8142;48.242;11.644;2023-07-13T07:27:40;22.70;99.90
16076;DHT22;8142;48.242;11.644;2023-07-13T07:30:06;22.80;99.90
16076;DHT22;8142;48.242;11.644;2023-07-13T07:32:32;22.90;99.90
16076;DHT22;8142;48.242;11.644;2023-07-13T07:34:58;22.90;99.90
16076;DHT22;8142;48.242;11.644;2023-07-13T07:37:24;22.90;99.90
16076;DHT22;8142;48.242;11.644;2023-07-13T07:39:50;22.90;99.90
16076;DHT22;8142;48.242;11.644;2023-07-13T07:42:16;22.80;99.90
16076;DHT22;8142;48.242;11.644;2023-07-13T07:44:42;22.60;99.90
16076;DHT22;8142;48.242;11.644;2023-07-13T07:47:09;22.50;99.90
16076;DHT22;8142;48.242;11.644;2023-07-13T07:49:35;22.30;99.90
16076;DHT22;8142;48.242;11.644;2023-07-13T07:52:01;22.20;99.90
16076;DHT22;8142;48.242;11.644;2023-07-13T07:54:27;22.10;99.90
16076;DHT22;8142;48.242;11.644;2023-07-13T07:56:54;22.00;99.90
16076;DHT22;8142;48.242;11.644;2023-07-13T07:59:20;21.80;99.90
16076;DHT22;8142;48.242;11.644;2023-07-13T08:01:46;21.80;99.90
16076;DHT22;8142;48.242;11.644;2023-07-13T08:04:13;21.70;99.90
16076;DHT22;8142;48.242;11.644;2023-07-13T08:06:39;21.60;99.90
16076;DHT22;8142;48.242;11.644;2023-07-13T08:09:05;21.60;99.90
16076;DHT22;8142;48.242;11.644;2023-07-13T08:11:31;21.60;99.90
16076;DHT22;8142;48.242;11.644;2023-07-13T08:13:57;21.60;99.90
16076;DHT22;8142;48.242;11.644;2023-07-13T08:16:23;21.70;99.90
16076;DHT22;8142;48.242;11.644;2023-07-13T08:18:50;21.70;99.90
16076;DHT22;8142;48.242;11.644;2023-07-13T08:21:16;21.70;99.90
16076;DHT22;8142;48.242;11.644;2023-07-13T08:23:42;21.70;99.90
16076;DHT22;8142;48.242;11.644;2023-07-13T08:26:09;21.70;99.90
16076;DHT22;8142;48.242;11.644;2023-07-13T08:28:35;21.70;99.90
16076;DHT22;8142;48.242;11.644;2023-07-13T08:31:05;21.80;99.90
16076;DHT22;8142;48.242;11.644;2023-07-13T08:33:34;21.90;99.90
16076;DHT22;8142;48.242;11.644;2023-07-13T08:36:01;21.90;99.90
16076;DHT22;8142;48.242;11.644;2023-07-13T08:38:27;21.90;99.90
16076;DHT22;8142;48.242;11.644;2023-07-13T08:40:55;21.90;99.90
16076;DHT22;8142;48.242;11.644;2023-07-13T08:43:34;21.90;99.90
16076;DHT22;8142;48.242;11.644;2023-07-13T08:48:55;21.60;99.90
16076;DHT22;8142;48.242;11.644;2023-07-13T08:51:44;21.60;99.90
16076;DHT22;8142;48.242;11.644;2023-07-13T08:56:45;21.40;99.90
16076;DHT22;8142;48.242;11.644;2023-07-13T08:59:17;21.40;99.90
16076;DHT22;8142;48.242;11.644;2023-07-13T09:10:23;21.30;99.90
16076;DHT22;8142;48.242;11.644;2023-07-13T09:13:22;21.30;99.90
16076;DHT22;8142;48.242;11.644;2023-07-13T09:15:50;21.30;99.90
16076;DHT22;8142;48.242;11.644;2023-07-13T09:18:38;21.30;99.90
16076;DHT22;8142;48.242;11.644;2023-07-13T09:21:13;21.30;99.90
16076;DHT22;8142;48.242;11.644;2023-07-13T09:23:41;21.30;99.90
16076;DHT22;8142;48.242;11.644;2023-07-13T09:26:14;21.30;99.90
16076;DHT22;8142;48.242;11.644;2023-07-13T09:28:46;21.20;99.90
16076;DHT22;8142;48.242;11.644;2023-07-13T09:33:47;21.20;99.90
16076;DHT22;8142;48.242;11.644;2023-07-13T09:38:43;21.30;99.90
16076;DHT22;8142;48.242;11.644;2023-07-13T09:44:09;21.50;99.90
16076;DHT22;8142;48.242;11.644;2023-07-13T09:46:37;21.50;99.90
16076;DHT22;8142;48.242;11.644;2023-07-13T09:49:03;21.60;99.90
16076;DHT22;8142;48.242;11.644;2023-07-13T09:51:29;21.60;99.90
16076;DHT22;8142;48.242;11.644;2023-07-13T09:53:55;21.70;99.90
16076;DHT22;8142;48.242;11.644;2023-07-13T09:56:27;21.70;99.90
16076;DHT22;8142;48.242;11.644;2023-07-13T09:58:55;21.80;99.90
16076;DHT22;8142;48.242;11.644;2023-07-13T10:01:37;21.80;99.90
16076;DHT22;8142;48.242;11.644;2023-07-13T10:04:13;21.80;99.90
16076;DHT22;8142;48.242;11.644;2023-07-13T10:06:40;21.90;99.90
16076;DHT22;8142;48.242;11.644;2023-07-13T10:09:09;22.00;99.90
16076;DHT22;8142;48.242;11.644;2023-07-13T10:11:36;22.10;99.90
16076;DHT22;8142;48.242;11.644;2023-07-13T10:14:14;22.10;99.90
16076;DHT22;8142;48.242;11.644;2023-07-13T10:16:42;22.20;99.90
16076;DHT22;8142;48.242;11.644;2023-07-13T10:22:10;22.30;99.90
16076;DHT22;8142;48.242;11.644;2023-07-13T10:24:35;22.30;99.90
16076;DHT22;8142;48.242;11.644;2023-07-13T10:27:15;22.40;99.90
16076;DHT22;8142;48.242;11.644;2023-07-13T10:30:02;22.40;99.90
16076;DHT22;8142;48.242;11.644;2023-07-13T10:32:34;22.50;99.90
16076;DHT22;8142;48.242;11.644;2023-07-13T10:35:00;22.50;99.90
16076;DHT22;8142;48.242;11.644;2023-07-13T10:37:56;22.50;99.90
16076;DHT22;8142;48.242;11.644;2023-07-13T10:40:34;22.60;99.90
16076;DHT22;8142;48.242;11.644;2023-07-13T10:43:06;22.70;99.90
16076;DHT22;8142;48.242;11.644;2023-07-13T10:45:35;22.80;99.90
16076;DHT22;8142;48.242;11.644;2023-07-13T10:48:03;22.90;99.90
16076;DHT22;8142;48.242;11.644;2023-07-13T10:50:30;22.90;99.90
16076;DHT22;8142;48.242;11.644;2023-07-13T10:53:17;23.00;99.90
16076;DHT22;8142;48.242;11.644;2023-07-13T10:58:38;23.10;99.90
16076;DHT22;8142;48.242;11.644;2023-07-13T11:01:17;23.20;99.90
16076;DHT22;8142;48.242;11.644;2023-07-13T11:11:34;23.20;99.90
16076;DHT22;8142;48.242;11.644;2023-07-13T11:14:02;23.30;99.90
16076;DHT22;8142;48.242;11.644;2023-07-13T11:16:46;23.40;99.90
16076;DHT22;8142;48.242;11.644;2023-07-13T11:24:57;23.60;99.90
16076;DHT22;8142;48.242;11.644;2023-07-13T11:30:18;23.70;99.90
16076;DHT22;8142;48.242;11.644;2023-07-13T11:35:35;23.80;99.90
16076;DHT22;8142;48.242;11.644;2023-07-13T11:38:03;23.80;99.90
16076;DHT22;8142;48.242;11.644;2023-07-13T11:40:34;23.80;99.90
16076;DHT22;8142;48.242;11.644;2023-07-13T11:43:01;23.90;99.90
16076;DHT22;8142;48.242;11.644;2023-07-13T11:45:27;23.90;99.90
16076;DHT22;8142;48.242;11.644;2023-07-13T11:47:54;24.00;99.90
16076;DHT22;8142;48.242;11.644;2023-07-13T11:50:24;24.00;99.90
16076;DHT22;8142;48.242;11.644;2023-07-13T11:52:51;24.00;99.90
16076;DHT22;8142;48.242;11.644;2023-07-13T11:55:21;24.00;99.90
16076;DHT22;8142;48.242;11.644;2023-07-13T11:57:58;23.90;99.90
16076;DHT22;8142;48.242;11.644;2023-07-13T12:00:32;23.90;99.90
16076;DHT22;8142;48.242;11.644;2023-07-13T12:03:00;23.80;99.90
16076;DHT22;8142;48.242;11.644;2023-07-13T12:05:28;23.70;99.90
16076;DHT22;8142;48.242;11.644;2023-07-13T12:07:56;23.60;99.90
16076;DHT22;8142;48.242;11.644;2023-07-13T12:10:29;23.60;99.90
16076;DHT22;8142;48.242;11.644;2023-07-13T12:12:57;23.50;99.90
16076;DHT22;8142;48.242;11.644;2023-07-13T12:15:38;23.40;99.90
16076;DHT22;8142;48.242;11.644;2023-07-13T12:18:29;23.40;99.90
16076;DHT22;8142;48.242;11.644;2023-07-13T12:20:58;23.40;99.90
16076;DHT22;8142;48.242;11.644;2023-07-13T12:23:31;23.50;99.90
16076;DHT22;8142;48.242;11.644;2023-07-13T12:26:00;23.50;99.90
16076;DHT22;8142;48.242;11.644;2023-07-13T12:28:36;23.50;99.90
16076;DHT22;8142;48.242;11.644;2023-07-13T12:31:05;23.50;99.90
16076;DHT22;8142;48.242;11.644;2023-07-13T12:33:33;23.50;99.90
16076;DHT22;8142;48.242;11.644;2023-07-13T12:36:02;23.60;99.90
16076;DHT22;8142;48.242;11.644;2023-07-13T12:38:30;23.50;99.90
16076;DHT22;8142;48.242;11.644;2023-07-13T12:40:56;23.50;99.90
16076;DHT22;8142;48.242;11.644;2023-07-13T12:43:23;23.50;99.90
16076;DHT22;8142;48.242;11.644;2023-07-13T12:46:05;23.50;99.90
16076;DHT22;8142;48.242;11.644;2023-07-13T12:48:42;23.50;99.90
16076;DHT22;8142;48.242;11.644;2023-07-13T12:51:13;23.50;99.90
16076;DHT22;8142;48.242;11.644;2023-07-13T12:53:42;23.40;99.90
16076;DHT22;8142;48.242;11.644;2023-07-13T12:56:21;23.40;99.90
16076;DHT22;8142;48.242;11.644;2023-07-13T12:58:47;23.40;99.90
16076;DHT22;8142;48.242;11.644;2023-07-13T13:01:21;23.50;99.90
16076;DHT22;8142;48.242;11.644;2023-07-13T13:03:50;23.50;99.90
16076;DHT22;8142;48.242;11.644;2023-07-13T13:06:28;23.50;99.90
16076;DHT22;8142;48.242;11.644;2023-07-13T13:08:58;23.60;99.90
16076;DHT22;8142;48.242;11.644;2023-07-13T13:11:26;23.60;99.90
16076;DHT22;8142;48.242;11.644;2023-07-13T13:13:52;23.60;99.90
16076;DHT22;8142;48.242;11.644;2023-07-13T13:16:32;23.70;99.90
16076;DHT22;8142;48.242;11.644;2023-07-13T13:19:05;23.70;99.90
16076;DHT22;8142;48.242;11.644;2023-07-13T13:21:35;23.80;99.90
16076;DHT22;8142;48.242;11.644;2023-07-13T13:24:02;23.90;99.90
16076;DHT22;8142;48.242;11.644;2023-07-13T13:26:28;23.90;99.90
16076;DHT22;8142;48.242;11.644;2023-07-13T13:28:57;24.00;99.90
16076;DHT22;8142;48.242;11.644;2023-07-13T13:31:23;24.10;99.90
16076;DHT22;8142;48.242;11.644;2023-07-13T13:33:50;24.10;99.90
16076;DHT22;8142;48.242;11.644;2023-07-13T13:36:21;24.10;99.90
16076;DHT22;8142;48.242;11.644;2023-07-13T13:38:51;24.10;99.90
16076;DHT22;8142;48.242;11.644;2023-07-13T13:41:17;24.20;99.90
16076;DHT22;8142;48.242;11.644;2023-07-13T13:43:43;24.20;99.90
16076;DHT22;8142;48.242;11.644;2023-07-13T13:46:19;24.20;99.90
16076;DHT22;8142;48.242;11.644;2023-07-13T13:48:46;24.20;99.90
16076;DHT22;8142;48.242;11.644;2023-07-13T13:51:15;24.20;99.90
16076;DHT22;8142;48.242;11.644;2023-07-13T13:53:42;24.20;99.90
16076;DHT22;8142;48.242;11.644;2023-07-13T13:56:08;24.20;99.90
16076;DHT22;8142;48.242;11.644;2023-07-13T13:58:34;24.40;99.90
16076;DHT22;8142;48.242;11.644;2023-07-13T14:01:00;24.20;99.90
16076;DHT22;8142;48.242;11.644;2023-07-13T14:03:26;24.20;99.90
16076;DHT22;8142;48.242;11.644;2023-07-13T14:05:54;24.20;99.90
16076;DHT22;8142;48.242;11.644;2023-07-13T14:08:23;24.20;99.90
16076;DHT22;8142;48.242;11.644;2023-07-13T14:10:53;24.20;99.90
16076;DHT22;8142;48.242;11.644;2023-07-13T14:13:33;24.30;99.90
16076;DHT22;8142;48.242;11.644;2023-07-13T14:16:02;24.30;99.90
16076;DHT22;8142;48.242;11.644;2023-07-13T14:18:27;24.30;99.90
16076;DHT22;8142;48.242;11.644;2023-07-13T14:20:53;24.30;99.90
16076;DHT22;8142;48.242;11.644;2023-07-13T14:23:19;24.20;99.80
16076;DHT22;8142;48.242;11.644;2023-07-13T14:25:46;24.30;99.80
16076;DHT22;8142;48.242;11.644;2023-07-13T14:28:24;24.30;99.50
16076;DHT22;8142;48.242;11.644;2023-07-13T14:30:51;24.30;99.20
16076;DHT22;8142;48.242;11.644;2023-07-13T14:33:18;24.30;99.60
16076;DHT22;8142;48.242;11.644;2023-07-13T14:35:44;24.30;99.50
16076;DHT22;8142;48.242;11.644;2023-07-13T14:38:15;24.20;99.30
16076;DHT22;8142;48.242;11.644;2023-07-13T14:40:42;24.20;99.90
16076;DHT22;8142;48.242;11.644;2023-07-13T14:43:15;24.20;99.90
16076;DHT22;8142;48.242;11.644;2023-07-13T14:45:45;24.20;99.90
16076;DHT22;8142;48.242;11.644;2023-07-13T14:48:21;24.10;99.90
16076;DHT22;8142;48.242;11.644;2023-07-13T14:50:53;24.10;99.90
16076;DHT22;8142;48.242;11.644;2023-07-13T14:53:20;24.00;99.90
16076;DHT22;8142;48.242;11.644;2023-07-13T14:55:46;24.00;99.90
16076;DHT22;8142;48.242;11.644;2023-07-13T14:58:12;24.00;99.90
16076;DHT22;8142;48.242;11.644;2023-07-13T15:00:39;24.00;99.80
16076;DHT22;8142;48.242;11.644;2023-07-13T15:03:23;24.00;99.70
16076;DHT22;8142;48.242;11.644;2023-07-13T15:05:51;24.00;98.00
16076;DHT22;8142;48.242;11.644;2023-07-13T15:08:17;23.90;98.40
16076;DHT22;8142;48.242;11.644;2023-07-13T15:10:43;23.80;98.70
16076;DHT22;8142;48.242;11.644;2023-07-13T15:15:47;23.70;99.70
16076;DHT22;8142;48.242;11.644;2023-07-13T15:18:15;23.60;99.70
16076;DHT22;8142;48.242;11.644;2023-07-13T15:20:44;23.60;99.90
16076;DHT22;8142;48.242;11.644;2023-07-13T15:23:14;23.60;99.60
16076;DHT22;8142;48.242;11.644;2023-07-13T15:25:41;23.60;99.90
16076;DHT22;8142;48.242;11.644;2023-07-13T15:28:07;23.50;99.70
16076;DHT22;8142;48.242;11.644;2023-07-13T15:30:46;23.50;99.90
16076;DHT22;8142;48.242;11.644;2023-07-13T15:33:26;23.50;99.90
16076;DHT22;8142;48.242;11.644;2023-07-13T15:35:53;23.50;99.90
16076;DHT22;8142;48.242;11.644;2023-07-13T15:38:24;23.60;99.90
16076;DHT22;8142;48.242;11.644;2023-07-13T15:40:52;23.60;99.90
16076;DHT22;8142;48.242;11.644;2023-07-13T15:43:19;23.60;99.90
16076;DHT22;8142;48.242;11.644;2023-07-13T15:45:46;23.60;99.90
16076;DHT22;8142;48.242;11.644;2023-07-13T15:50:53;23.80;99.90
16076;DHT22;8142;48.242;11.644;2023-07-13T15:53:25;23.70;99.90
16076;DHT22;8142;48.242;11.644;2023-07-13T15:55:52;23.70;99.90
16076;DHT22;8142;48.242;11.644;2023-07-13T15:58:18;23.70;99.90
16076;DHT22;8142;48.242;11.644;2023-07-13T16:00:45;23.70;99.90
16076;DHT22;8142;48.242;11.644;2023-07-13T16:03:11;23.70;99.90
16076;DHT22;8142;48.242;11.644;2023-07-13T16:05:41;23.70;99.90
16076;DHT22;8142;48.242;11.644;2023-07-13T16:08:26;23.70;99.90
16076;DHT22;8142;48.242;11.644;2023-07-13T16:10:54;23.80;99.90
16076;DHT22;8142;48.242;11.644;2023-07-13T16:13:20;23.80;99.90
16076;DHT22;8142;48.242;11.644;2023-07-13T16:15:47;23.80;99.90
16076;DHT22;8142;48.242;11.644;2023-07-13T16:18:14;23.80;99.90
16076;DHT22;8142;48.242;11.644;2023-07-13T16:20:47;23.80;99.90
16076;DHT22;8142;48.242;11.644;2023-07-13T16:23:15;23.80;99.90
16076;DHT22;8142;48.242;11.644;2023-07-13T16:25:42;23.70;99.90
16076;DHT22;8142;48.242;11.644;2023-07-13T16:28:10;23.70;99.90
16076;DHT22;8142;48.242;11.644;2023-07-13T16:30:37;23.70;99.90